createdAt,value
2018-12-04T00:02:04.552Z,1718.30
2018-12-04T00:04:32.459Z,1770.23
2018-12-04T00:07:00.364Z,1799.50
2018-12-04T00:09:28.297Z,1766.43
2018-12-04T00:11:56.258Z,1791.70
2018-12-04T00:14:24.164Z,1819.80
2018-12-04T00:16:52.084Z,1753.70
2018-12-04T00:19:19.997Z,1709.90
2018-12-04T00:21:47.912Z,1652.67
2018-12-04T00:24:15.859Z,1696.20
2018-12-04T00:26:43.863Z,1761.43
2018-12-04T00:29:11.812Z,1789.07
2018-12-04T00:31:39.745Z,1775.10
2018-12-04T00:34:07.664Z,1887.03
2018-12-04T00:36:35.528Z,1719.10
2018-12-04T00:39:05.345Z,1714.70
2018-12-04T00:41:33.324Z,1683.13
2018-12-04T00:44:01.243Z,1686.93
2018-12-04T00:46:29.156Z,1635.67
2018-12-04T00:48:57.076Z,1656.20
2018-12-04T00:51:24.984Z,1658.30
2018-12-04T00:53:52.876Z,1670.67
2018-12-04T00:56:20.798Z,1730.77
2018-12-04T00:58:48.708Z,1682.20
2018-12-04T01:01:16.667Z,1640.43
2018-12-04T01:03:44.560Z,1685.03
2018-12-04T01:06:12.485Z,1920.73
2018-12-04T01:08:40.396Z,1802.37
2018-12-04T01:11:08.296Z,1980.23
2018-12-04T01:13:36.227Z,1838.07
2018-12-04T01:16:04.141Z,1575.13
2018-12-04T01:18:32.054Z,1920.40
2018-12-04T01:20:59.984Z,1719.70
2018-12-04T01:23:27.879Z,1724.27
2018-12-04T01:25:55.820Z,1835.70
2018-12-04T01:28:23.711Z,1772.57
2018-12-04T01:30:51.633Z,1944.47
2018-12-04T01:33:19.553Z,1742.73
2018-12-04T01:35:47.452Z,1713.63
2018-12-04T01:38:15.477Z,1999.90
2018-12-04T01:40:43.396Z,1870.93
2018-12-04T01:43:11.258Z,1967.30
2018-12-04T01:45:39.198Z,1930.63
2018-12-04T01:48:07.113Z,1999.90
2018-12-04T01:50:35.098Z,1923.93
2018-12-04T01:53:03.093Z,1695.60
2018-12-04T01:55:30.992Z,1972.20
2018-12-04T01:57:58.899Z,1950.23
2018-12-04T02:00:26.844Z,1999.90
2018-12-04T02:02:54.744Z,1917.20
2018-12-04T02:05:24.095Z,1999.90
2018-12-04T02:07:52.463Z,1942.43
2018-12-04T02:10:20.360Z,1908.03
2018-12-04T02:12:48.282Z,1999.90
2018-12-04T02:15:16.192Z,1999.90
2018-12-04T02:17:44.119Z,1805.50
2018-12-04T02:20:12.041Z,1999.90
2018-12-04T02:22:39.964Z,1724.67
2018-12-04T02:25:07.860Z,1779.57
2018-12-04T02:27:35.793Z,1769.13
2018-12-04T02:30:04.000Z,1682.73
2018-12-04T02:32:31.946Z,1999.90
2018-12-04T02:34:59.970Z,1732.43
2018-12-04T02:37:27.868Z,1999.90
2018-12-04T02:39:55.777Z,1669.97
2018-12-04T02:42:25.976Z,1734.77
2018-12-04T02:44:53.964Z,1999.90
2018-12-04T02:47:21.882Z,1763.20
2018-12-04T02:49:49.733Z,1672.73
2018-12-04T02:52:17.629Z,1999.90
2018-12-04T02:54:45.540Z,1999.90
2018-12-04T02:57:13.437Z,1885.73
2018-12-04T02:59:41.347Z,1999.90
2018-12-04T03:02:09.277Z,1979.07
2018-12-04T03:04:37.176Z,1999.90
2018-12-04T03:07:05.095Z,1999.90
2018-12-04T03:09:33.097Z,1999.90
2018-12-04T03:12:00.997Z,1999.90
2018-12-04T03:14:28.903Z,1999.90
2018-12-04T03:16:56.804Z,1999.90
2018-12-04T03:19:24.712Z,1999.90
2018-12-04T03:21:52.671Z,1999.90
2018-12-04T03:24:20.564Z,1999.90
2018-12-04T03:26:48.473Z,1999.90
2018-12-04T03:29:16.404Z,1999.90
2018-12-04T03:31:44.314Z,1999.90
2018-12-04T03:34:12.171Z,1999.90
2018-12-04T03:36:40.073Z,1999.90
2018-12-04T03:39:08.165Z,1999.90
2018-12-04T03:41:36.097Z,1999.90
2018-12-04T03:44:04.105Z,1999.90
2018-12-04T03:46:32.006Z,1999.90
2018-12-04T03:48:59.913Z,1999.90
2018-12-04T03:51:27.789Z,1999.90
2018-12-04T03:53:55.691Z,1999.90
2018-12-04T03:56:23.598Z,1999.90
2018-12-04T03:58:51.497Z,1999.90
2018-12-04T04:01:19.507Z,1999.90
2018-12-04T04:03:47.407Z,1999.90
2018-12-04T04:06:15.317Z,1999.90
2018-12-04T04:08:43.257Z,1999.90
2018-12-04T04:11:11.107Z,1999.90
2018-12-04T04:13:39.000Z,1999.90
2018-12-04T04:16:06.912Z,1999.90
2018-12-04T04:18:34.805Z,1999.90
2018-12-04T04:21:02.719Z,1999.90
2018-12-04T04:23:30.708Z,1999.90
2018-12-04T04:25:58.617Z,1999.90
2018-12-04T04:28:26.586Z,1999.90
2018-12-04T04:30:54.577Z,1999.90
2018-12-04T04:33:22.580Z,1999.90
2018-12-04T04:35:50.563Z,1999.90
2018-12-04T04:38:18.513Z,1999.90
2018-12-04T04:40:46.352Z,1999.90
2018-12-04T04:43:14.278Z,1999.90
2018-12-04T04:45:42.128Z,1999.90
2018-12-04T04:48:10.104Z,1999.90
2018-12-04T04:50:37.939Z,1999.90
2018-12-04T04:53:05.857Z,1999.90
2018-12-04T04:55:33.708Z,1999.90
2018-12-04T04:58:01.568Z,1999.90
2018-12-04T05:00:29.530Z,1999.90
2018-12-04T05:02:57.441Z,1999.90
2018-12-04T05:05:25.376Z,1999.90
2018-12-04T05:07:53.384Z,1999.90
2018-12-04T05:10:21.294Z,1999.90
2018-12-04T05:12:49.277Z,1999.90
2018-12-04T05:15:17.201Z,1999.90
2018-12-04T05:17:45.057Z,1999.90
2018-12-04T05:20:13.012Z,1999.90
2018-12-04T05:22:40.922Z,1999.90
2018-12-04T05:25:08.812Z,1999.90
2018-12-04T05:27:36.685Z,1999.90
2018-12-04T05:30:04.991Z,1999.90
2018-12-04T05:32:32.937Z,1999.90
2018-12-04T05:35:00.836Z,1999.90
2018-12-04T05:37:28.747Z,1999.90
2018-12-04T05:39:56.607Z,1999.90
2018-12-04T05:42:24.539Z,1999.90
2018-12-04T05:44:52.456Z,1999.90
2018-12-04T05:47:20.366Z,1999.90
2018-12-04T05:49:48.280Z,1999.90
2018-12-04T05:52:16.172Z,1999.90
2018-12-04T05:54:44.080Z,1999.90
2018-12-04T05:57:11.992Z,1999.90
2018-12-04T05:59:39.913Z,1999.90
2018-12-04T06:02:07.828Z,1999.90
2018-12-04T06:04:35.735Z,1999.90
2018-12-04T06:07:03.648Z,1999.90
2018-12-04T06:09:31.495Z,1999.90
2018-12-04T06:11:59.418Z,1999.90
2018-12-04T06:14:27.763Z,1999.90
2018-12-04T06:16:55.668Z,1999.90
2018-12-04T06:19:23.601Z,1999.90
2018-12-04T06:21:51.483Z,1999.90
2018-12-04T06:24:19.401Z,1999.90
2018-12-04T06:26:47.245Z,1999.90
2018-12-04T06:29:15.147Z,1999.90
2018-12-04T06:31:43.100Z,1999.90
2018-12-04T06:34:11.020Z,1999.90
2018-12-04T06:36:38.936Z,1999.90
2018-12-04T06:39:07.298Z,1999.90
2018-12-04T06:41:35.277Z,1999.90
2018-12-04T06:44:03.180Z,1999.90
2018-12-04T06:46:31.097Z,1999.90
2018-12-04T06:48:58.996Z,1999.90
2018-12-04T06:51:26.900Z,1999.90
2018-12-04T06:53:54.828Z,1999.90
2018-12-04T06:56:22.676Z,1999.90
2018-12-04T06:58:50.696Z,1999.90
2018-12-04T07:01:18.629Z,1999.90
2018-12-04T07:03:46.525Z,1938.07
2018-12-04T07:06:14.408Z,1999.90
2018-12-04T07:08:42.308Z,1999.90
2018-12-04T07:11:10.248Z,1608.50
2018-12-04T07:13:38.144Z,1999.90
2018-12-04T07:16:06.012Z,1354.80
2018-12-04T07:18:33.952Z,1999.90
2018-12-04T07:21:01.853Z,1568.87
2018-12-04T07:23:29.771Z,1999.90
2018-12-04T07:25:57.680Z,1204.97
2018-12-04T07:28:25.581Z,1877.80
2018-12-04T07:30:53.493Z,1508.93
2018-12-04T07:33:21.388Z,1999.90
2018-12-04T07:35:49.299Z,1174.50
2018-12-04T07:38:17.268Z,1770.50
2018-12-04T07:40:45.168Z,1622.93
2018-12-04T07:43:13.051Z,1528.17
2018-12-04T07:45:40.940Z,1464.80
2018-12-04T07:48:08.825Z,1856.57
2018-12-04T07:50:36.737Z,1999.90
2018-12-04T07:53:04.640Z,1979.00
2018-12-04T07:55:32.528Z,1999.90
2018-12-04T07:58:00.437Z,1999.90
2018-12-04T08:00:28.371Z,1999.90
2018-12-04T08:02:56.317Z,1999.90
2018-12-04T08:05:24.217Z,1999.90
2018-12-04T08:07:52.112Z,1999.90
2018-12-04T08:10:20.002Z,1999.90
2018-12-04T08:12:47.898Z,1999.90
2018-12-04T08:15:15.818Z,1999.90
2018-12-04T08:17:43.704Z,1999.90
2018-12-04T08:20:11.593Z,1967.67
2018-12-04T08:22:39.496Z,1923.27
2018-12-04T08:25:07.397Z,1999.90
2018-12-04T08:27:36.084Z,1999.90
2018-12-04T08:30:04.653Z,1999.90
2018-12-04T08:32:32.609Z,1999.90
2018-12-04T08:35:00.461Z,1999.90
2018-12-04T08:37:28.404Z,1999.90
2018-12-04T08:39:56.306Z,1999.90
2018-12-04T08:42:24.256Z,1999.90
2018-12-04T08:44:52.184Z,1999.90
2018-12-04T08:47:20.088Z,1999.90
2018-12-04T08:49:48.000Z,1999.90
2018-12-04T08:52:16.840Z,1941.67
2018-12-04T08:54:44.697Z,1999.90
2018-12-04T08:57:12.606Z,1999.90
2018-12-04T08:59:40.532Z,1999.90
2018-12-04T09:02:08.460Z,1999.90
2018-12-04T09:04:36.364Z,1382.93
2018-12-04T09:07:04.264Z,1294.47
2018-12-04T09:09:32.136Z,1028.50
2018-12-04T09:12:00.072Z,1999.90
2018-12-04T09:14:27.979Z,1115.87
2018-12-04T09:16:55.917Z,1206.13
2018-12-04T09:19:23.832Z,521.03
2018-12-04T09:21:51.787Z,1737.50
2018-12-04T09:24:19.795Z,494.67
2018-12-04T09:26:47.797Z,1915.53
2018-12-04T09:29:15.830Z,469.33
2018-12-04T09:31:43.707Z,1257.20
2018-12-04T09:34:11.603Z,1795.60
2018-12-04T09:36:39.487Z,1999.90
2018-12-04T09:39:07.579Z,581.57
2018-12-04T09:41:35.493Z,1357.97
2018-12-04T09:44:03.400Z,1999.90
2018-12-04T09:46:31.284Z,309.73
2018-12-04T09:48:59.245Z,391.83
2018-12-04T09:51:27.140Z,1183.40
2018-12-04T09:53:55.057Z,620.40
2018-12-04T09:56:22.943Z,1628.50
2018-12-04T09:58:50.837Z,1523.17
2018-12-04T10:01:18.737Z,869.53
2018-12-04T10:03:47.136Z,595.63
2018-12-04T10:06:15.020Z,1999.90
2018-12-04T10:08:42.929Z,732.43
2018-12-04T10:11:11.197Z,684.00
2018-12-04T10:13:39.103Z,1999.90
2018-12-04T10:16:07.038Z,1768.23
2018-12-04T10:18:34.980Z,147.13
2018-12-04T10:21:02.900Z,199.27
2018-12-04T10:23:30.785Z,1482.43
2018-12-04T10:25:58.696Z,114.43
2018-12-04T10:28:26.608Z,418.07
2018-12-04T10:31:00.208Z,114.13
2018-12-04T10:33:28.124Z,439.13
2018-12-04T10:35:56.044Z,604.37
2018-12-04T10:38:23.991Z,125.97
2018-12-04T10:40:51.901Z,367.60
2018-12-04T10:43:19.743Z,233.43
2018-12-04T10:45:47.657Z,99.93
2018-12-04T10:48:15.540Z,220.93
2018-12-04T10:50:43.463Z,359.37
2018-12-04T10:53:12.000Z,509.03
2018-12-04T10:55:39.941Z,297.67
2018-12-04T10:58:07.839Z,1218.90
2018-12-04T11:00:41.104Z,1951.97
2018-12-04T11:03:12.099Z,106.30
2018-12-04T11:05:40.730Z,199.60
2018-12-04T11:08:08.640Z,107.97
2018-12-04T11:10:37.304Z,1556.27
2018-12-04T11:13:05.292Z,298.40
2018-12-04T11:15:33.185Z,86.20
2018-12-04T11:18:01.111Z,90.03
2018-12-04T11:20:29.013Z,94.27
2018-12-04T11:22:56.909Z,90.10
2018-12-04T11:25:24.837Z,148.60
2018-12-04T11:27:52.732Z,130.63
2018-12-04T11:30:20.654Z,105.10
2018-12-04T11:32:48.556Z,194.23
2018-12-04T11:35:16.467Z,763.13
2018-12-04T11:37:44.365Z,100.20
2018-12-04T11:40:12.309Z,1999.90
2018-12-04T11:42:40.201Z,167.13
2018-12-04T11:45:08.088Z,137.83
2018-12-04T11:47:36.020Z,555.23
2018-12-04T11:50:04.061Z,116.10
2018-12-04T11:52:31.990Z,441.50
2018-12-04T11:54:59.898Z,1927.80
2018-12-04T11:57:27.808Z,107.40
2018-12-04T11:59:55.705Z,98.33
2018-12-04T12:02:23.692Z,288.03
2018-12-04T12:04:51.605Z,87.77
2018-12-04T12:07:20.635Z,835.70
2018-12-04T12:09:48.845Z,1223.60
2018-12-04T12:12:16.757Z,114.20
2018-12-04T12:14:44.657Z,1349.93
2018-12-04T12:17:12.573Z,339.13
2018-12-04T12:19:40.490Z,150.60
2018-12-04T12:22:08.407Z,325.20
2018-12-04T12:24:36.333Z,99.70
2018-12-04T12:27:04.261Z,94.93
2018-12-04T12:29:32.298Z,111.00
2018-12-04T12:32:00.304Z,88.03
2018-12-04T12:34:28.176Z,97.70
2018-12-04T12:36:56.085Z,155.10
2018-12-04T12:39:23.961Z,114.37
2018-12-04T12:41:51.977Z,102.57
2018-12-04T12:44:19.961Z,252.07
2018-12-04T12:46:47.838Z,536.17
2018-12-04T12:49:15.720Z,225.47
2018-12-04T12:51:43.600Z,220.60
2018-12-04T12:54:11.492Z,120.03
2018-12-04T12:56:39.368Z,849.53
2018-12-04T12:59:07.283Z,295.33
2018-12-04T13:01:35.157Z,290.17
2018-12-04T13:04:03.037Z,85.73
2018-12-04T13:06:30.940Z,309.27
2018-12-04T13:08:58.815Z,121.23
2018-12-04T13:11:26.724Z,100.30
2018-12-04T13:13:54.560Z,118.40
2018-12-04T13:16:22.464Z,89.10
2018-12-04T13:18:50.365Z,145.23
2018-12-04T13:21:18.336Z,132.67
2018-12-04T13:23:46.221Z,100.37
2018-12-04T13:26:14.095Z,86.33
2018-12-04T13:28:41.985Z,94.67
2018-12-04T13:31:10.510Z,89.20
2018-12-04T13:33:38.508Z,620.20
2018-12-04T13:36:06.489Z,627.73
2018-12-04T13:38:34.390Z,101.70
2018-12-04T13:41:02.551Z,96.80
2018-12-04T13:43:30.473Z,90.07
2018-12-04T13:45:58.350Z,92.53
2018-12-04T13:48:26.243Z,131.03
2018-12-04T13:50:54.300Z,109.47
2018-12-04T13:53:22.379Z,300.23
2018-12-04T13:55:50.264Z,169.37
2018-12-04T13:58:18.250Z,88.67
2018-12-04T14:00:46.468Z,281.23
2018-12-04T14:03:14.561Z,112.37
2018-12-04T14:05:42.578Z,145.57
2018-12-04T14:08:10.473Z,198.57
2018-12-04T14:10:38.605Z,182.87
2018-12-04T14:13:06.581Z,135.67
2018-12-04T14:15:34.552Z,133.93
2018-12-04T14:18:02.496Z,200.43
2018-12-04T14:20:30.386Z,138.50
2018-12-04T14:22:58.280Z,111.53
2018-12-04T14:25:26.199Z,1118.77
2018-12-04T14:27:54.184Z,655.30
2018-12-04T14:30:22.439Z,121.77
2018-12-04T14:32:50.403Z,99.63
2018-12-04T14:35:18.303Z,99.97
2018-12-04T14:37:46.297Z,554.43
2018-12-04T14:40:14.234Z,154.57
2018-12-04T14:42:42.132Z,342.00
2018-12-04T14:45:10.077Z,159.97
2018-12-04T14:47:39.044Z,171.07
2018-12-04T14:50:07.764Z,325.57
2018-12-04T14:52:35.854Z,116.63
2018-12-04T14:55:03.858Z,134.90
2018-12-04T14:57:31.881Z,100.30
2018-12-04T14:59:59.840Z,119.17
2018-12-04T15:02:27.753Z,117.33
2018-12-04T15:04:55.613Z,86.10
2018-12-04T15:07:23.600Z,86.70
2018-12-04T15:09:51.536Z,102.00
2018-12-04T15:12:19.509Z,131.53
2018-12-04T15:14:47.416Z,92.67
2018-12-04T15:17:15.332Z,83.20
2018-12-04T15:19:43.296Z,93.47
2018-12-04T15:22:11.261Z,82.67
2018-12-04T15:24:39.232Z,88.83
2018-12-04T15:27:07.129Z,81.33
2018-12-04T15:29:35.094Z,91.47
2018-12-04T15:32:03.092Z,164.50
2018-12-04T15:34:31.679Z,86.17
2018-12-04T15:36:59.647Z,99.57
2018-12-04T15:39:28.016Z,203.90
2018-12-04T15:41:56.229Z,96.20
2018-12-04T15:44:24.228Z,87.07
2018-12-04T15:46:52.202Z,94.17
2018-12-04T15:49:20.213Z,81.00
2018-12-04T15:51:48.202Z,85.83
2018-12-04T15:54:16.174Z,202.93
2018-12-04T15:56:44.090Z,88.43
2018-12-04T15:59:12.038Z,113.77
2018-12-04T16:01:39.924Z,133.90
2018-12-04T16:04:07.877Z,87.43
2018-12-04T16:06:35.774Z,109.47
2018-12-04T16:09:05.736Z,93.57
2018-12-04T16:11:33.788Z,140.47
2018-12-04T16:14:01.672Z,85.13
2018-12-04T16:16:29.566Z,101.43
2018-12-04T16:18:57.417Z,95.23
2018-12-04T16:21:25.309Z,96.43
2018-12-04T16:23:53.245Z,86.77
2018-12-04T16:26:21.124Z,99.43
2018-12-04T16:28:49.078Z,93.30
2018-12-04T16:31:16.993Z,97.93
2018-12-04T16:33:44.876Z,84.60
2018-12-04T16:36:12.770Z,82.30
2018-12-04T16:38:40.661Z,83.50
2018-12-04T16:41:08.594Z,98.40
2018-12-04T16:43:36.504Z,81.53
2018-12-04T16:46:05.430Z,95.13
2018-12-04T16:48:33.389Z,94.43
2018-12-04T16:51:01.263Z,89.30
2018-12-04T16:53:29.138Z,88.70
2018-12-04T16:55:57.062Z,85.57
2018-12-04T16:58:25.251Z,90.53
2018-12-04T17:00:53.312Z,93.47
2018-12-04T17:03:21.180Z,82.57
2018-12-04T17:05:49.079Z,96.27
2018-12-04T17:08:16.985Z,92.73
2018-12-04T17:10:44.926Z,98.93
2018-12-04T17:13:12.844Z,85.13
2018-12-04T17:15:40.814Z,86.70
2018-12-04T17:18:08.741Z,88.83
2018-12-04T17:20:36.678Z,87.83
2018-12-04T17:23:04.581Z,96.57
2018-12-04T17:25:32.600Z,111.30
2018-12-04T17:28:00.573Z,96.40
2018-12-04T17:30:28.475Z,91.63
2018-12-04T17:32:56.513Z,95.27
2018-12-04T17:35:24.402Z,87.83
2018-12-04T17:37:52.293Z,106.93
2018-12-04T17:40:20.958Z,89.37
2018-12-04T17:42:49.268Z,96.70
2018-12-04T17:45:17.147Z,102.40
2018-12-04T17:47:45.040Z,106.33
2018-12-04T17:50:12.931Z,115.87
2018-12-04T17:52:40.853Z,96.50
2018-12-04T17:55:08.863Z,89.70
2018-12-04T17:57:36.733Z,108.20
2018-12-04T18:00:04.847Z,98.00
2018-12-04T18:02:32.781Z,94.73
2018-12-04T18:05:00.657Z,97.80
2018-12-04T18:07:28.636Z,98.47
2018-12-04T18:09:56.560Z,98.33
2018-12-04T18:12:25.096Z,251.27
2018-12-04T18:14:52.964Z,104.90
2018-12-04T18:17:20.875Z,85.70
2018-12-04T18:19:48.786Z,87.40
2018-12-04T18:22:16.727Z,108.80
2018-12-04T18:24:44.699Z,103.57
2018-12-04T18:27:12.618Z,92.50
2018-12-04T18:29:40.544Z,104.20
2018-12-04T18:32:08.520Z,156.13
2018-12-04T18:34:36.469Z,87.43
2018-12-04T18:37:04.389Z,102.97
2018-12-04T18:39:32.292Z,111.20
2018-12-04T18:42:00.302Z,135.77
2018-12-04T18:44:28.263Z,89.77
2018-12-04T18:46:56.215Z,100.30
2018-12-04T18:49:24.156Z,108.93
2018-12-04T18:51:52.143Z,109.80
2018-12-04T18:54:20.216Z,95.80
2018-12-04T18:56:48.185Z,94.60
2018-12-04T18:59:16.180Z,83.57
2018-12-04T19:01:44.104Z,99.60
2018-12-04T19:04:13.225Z,91.27
2018-12-04T19:06:41.173Z,104.73
2018-12-04T19:09:09.102Z,89.37
2018-12-04T19:11:36.989Z,92.70
2018-12-04T19:14:04.913Z,103.57
2018-12-04T19:16:32.805Z,97.67
2018-12-04T19:19:00.720Z,90.40
2018-12-04T19:21:28.625Z,95.57
2018-12-04T19:23:56.565Z,92.03
2018-12-04T19:26:24.434Z,104.37
2018-12-04T19:28:52.899Z,97.73
2018-12-04T19:31:20.784Z,94.77
2018-12-04T19:33:48.785Z,91.47
2018-12-04T19:36:16.724Z,131.23
2018-12-04T19:38:44.959Z,116.63
2018-12-04T19:41:12.937Z,107.10
2018-12-04T19:43:40.854Z,104.37
2018-12-04T19:46:08.763Z,89.63
2018-12-04T19:48:36.638Z,88.43
2018-12-04T19:51:04.635Z,108.40
2018-12-04T19:53:33.358Z,92.40
2018-12-04T19:56:01.332Z,93.83
2018-12-04T19:58:29.341Z,93.13
2018-12-04T20:00:57.443Z,98.77
2018-12-04T20:03:25.474Z,96.63
2018-12-04T20:05:53.492Z,93.70
2018-12-04T20:08:21.559Z,141.83
2018-12-04T20:10:49.565Z,288.70
2018-12-04T20:13:17.554Z,119.40
2018-12-04T20:15:45.452Z,111.03
2018-12-04T20:18:13.409Z,96.30
2018-12-04T20:20:41.356Z,99.77
2018-12-04T20:23:09.333Z,104.90
2018-12-04T20:25:37.236Z,92.33
2018-12-04T20:28:05.182Z,110.20
2018-12-04T20:30:33.200Z,93.90
2018-12-04T20:33:01.203Z,102.30
2018-12-04T20:35:29.173Z,103.43
2018-12-04T20:37:57.143Z,109.97
2018-12-04T20:40:31.390Z,97.10
2018-12-04T20:42:55.189Z,93.10
2018-12-04T20:45:23.101Z,133.27
2018-12-04T20:47:51.105Z,96.83
2018-12-04T20:50:19.161Z,100.07
2018-12-04T20:52:47.076Z,97.03
2018-12-04T20:55:15.005Z,103.07
2018-12-04T20:57:42.959Z,109.87
2018-12-04T21:00:11.491Z,118.70
2018-12-04T21:02:39.437Z,101.17
2018-12-04T21:05:07.529Z,86.33
2018-12-04T21:07:35.417Z,92.97
2018-12-04T21:10:03.773Z,92.10
2018-12-04T21:12:31.692Z,94.43
2018-12-04T21:14:59.617Z,95.47
2018-12-04T21:17:27.785Z,94.43
2018-12-04T21:19:56.536Z,94.73
2018-12-04T21:22:24.440Z,102.13
2018-12-04T21:24:52.876Z,88.20
2018-12-04T21:27:26.326Z,92.10
2018-12-04T21:29:59.808Z,91.07
2018-12-04T21:32:33.473Z,92.03
2018-12-04T21:35:07.004Z,87.67
2018-12-04T21:37:40.505Z,89.07
2018-12-04T21:40:14.121Z,93.57
2018-12-04T21:42:47.610Z,88.10
2018-12-04T21:45:21.048Z,93.77
2018-12-04T21:47:58.419Z,96.33
2018-12-04T21:50:26.483Z,95.37
2018-12-04T21:52:54.411Z,96.73
2018-12-04T21:55:22.408Z,89.27
2018-12-04T21:57:50.317Z,98.70
2018-12-04T22:00:18.848Z,94.33
2018-12-04T22:02:46.748Z,92.93
2018-12-04T22:05:14.749Z,99.13
2018-12-04T22:07:42.660Z,87.93
2018-12-04T22:10:10.592Z,102.50
2018-12-04T22:12:38.539Z,86.70
2018-12-04T22:15:06.473Z,131.87
2018-12-04T22:17:34.344Z,94.73
2018-12-04T22:20:02.505Z,93.20
2018-12-04T22:22:30.443Z,90.87
2018-12-04T22:24:58.372Z,92.30
2018-12-04T22:27:26.285Z,90.53
2018-12-04T22:29:54.219Z,159.10
2018-12-04T22:32:22.176Z,106.13
2018-12-04T22:34:50.080Z,92.37
2018-12-04T22:37:18.038Z,102.03
2018-12-04T22:39:45.940Z,82.77
2018-12-04T22:42:13.855Z,98.10
2018-12-04T22:44:41.740Z,89.90
2018-12-04T22:47:09.680Z,95.23
2018-12-04T22:49:37.605Z,97.10
2018-12-04T22:52:05.503Z,86.33
2018-12-04T22:54:33.416Z,124.33
2018-12-04T22:57:01.333Z,197.77
2018-12-04T22:59:29.252Z,135.97
2018-12-04T23:01:57.227Z,196.03
2018-12-04T23:04:25.364Z,84.30
2018-12-04T23:06:53.217Z,92.67
2018-12-04T23:09:21.145Z,160.77
2018-12-04T23:11:49.055Z,92.30
2018-12-04T23:14:16.923Z,87.83
2018-12-04T23:16:44.847Z,84.53
2018-12-04T23:19:12.821Z,87.30
2018-12-04T23:21:40.752Z,101.13
2018-12-04T23:24:08.731Z,87.40
2018-12-04T23:26:36.673Z,84.37
2018-12-04T23:29:04.584Z,90.33
2018-12-04T23:31:32.500Z,88.83
2018-12-04T23:34:01.224Z,91.10
2018-12-04T23:36:29.125Z,84.00
2018-12-04T23:38:57.089Z,229.37
2018-12-04T23:41:25.014Z,100.80
2018-12-04T23:43:52.893Z,91.23
2018-12-04T23:46:20.811Z,91.37
2018-12-04T23:48:48.707Z,90.20
2018-12-04T23:51:16.612Z,361.33
2018-12-04T23:53:44.524Z,88.47
2018-12-04T23:56:12.431Z,92.53
2018-12-04T23:58:40.345Z,92.70
